Terminal Aerodrome Forecast
Issued by NWS

Home | Current Version | Previous Version | Text Only | Print | Product List | Glossary Off
Versions: 1 2 3 4 5 6 7 8 9 10 11 12 13 14 15 16 17 18 19 20 21 22 23 24 25 26

000
FTUS43 KGRB 081734
TAFRHI
TAF
KRHI 081734Z 0818/0918 29007KT 5SM -SN OVC020
      TEMPO 0819/0823 2SM -SN BKN015
     FM082300 25004KT 1 1/2SM -SN OVC025
      TEMPO 0900/0904 3/4SM -SN OVC015
     FM090600 33004KT 2SM -SN OVC015
     FM090800 34005KT 5SM -SN SCT008 OVC015
     FM091300 35008KT 6SM -SN BKN018 BKN035=

USA.gov is the U.S. government's official web portal to all federal, state and local government web resources and services.